Station: Point Fawcett

  Atmospheric Gas Attenuation - ITU Rec 676-11   --------------- db/100km ---------------
Date Time Temp RH % AH g/m3 Dew Point Wind Direction Speed kph Gust kph Barometer mB Rainfall Since 9am 24GHz 47GHz 76GHz 122GHz 134GHz 241GHz
07 07:30 18.8 92 14.82 17.5 2 6 1012.2 0 32.6 34.9 63.3 167.2 177.4 615.1
07 07:20 18.8 91 14.65 17.3 4 6 1012.1 0 32.2 34.6 62.5 165.1 174.9 606.2
07 07:10 18.8 91 14.65 17.3 7 9 1011.9 0 32.2 34.6 62.5 165.1 174.9 606.1
07 07:00 19 90 14.67 17.3 6 7 1011.8 0 32.3 34.5 62.4 164.9 174.7 605.5
07 06:50 19 89 14.5 17.1 6 6 1011.7 0 31.9 34.2 61.7 162.8 172.1 596.6
07 06:40 19.7 89 15.11 17.8 6 7 1011.5 0 33.2 35.0 63.9 168.7 179.6 622.7
07 06:30 19.5 87 14.6 17.3 6 9 1011.4 0 32.1 34.2 61.7 162.9 172.4 597.8
07 06:20 20.1 87 15.12 17.9 9 9 1011.3 0 33.1 34.9 63.6 167.9 178.7 619.8
07 06:10 21.1 86 15.84 18.7 9 11 1011.2 0 34.6 35.8 66.0 174.4 187.1 649.0
07 06:00 21.7 85 16.21 19.1 11 15 1011.2 0 35.3 36.2 67.2 177.5 191.1 663.1
07 05:50 21.8 84 16.11 19 11 13 1011.1 0 35.1 36.0 66.6 176.1 189.3 657.0
07 05:40 22.3 85 16.78 19.7 13 15 1011.1 0 36.5 37.0 69.3 183.1 198.1 687.7
07 05:30 22.2 85 16.69 19.6 11 13 1011 0 36.3 36.9 68.9 182.2 197.0 683.8
07 05:20 22.1 84 16.4 19.3 11 13 1010.9 0 35.7 36.4 67.7 178.9 192.9 669.4
07 05:10 22.4 86 17.08 19.9 13 15 1010.9 0 37.1 37.5 70.6 186.5 202.4 702.5
07 04:50 21.7 87 16.59 19.4 11 13 1010.9 0 36.2 36.9 68.9 182.2 196.8 683.0
07 04:40 21.7 89 16.98 19.8 11 13 1010.9 0 37.0 37.6 70.7 187.0 202.8 703.7
07 04:30 21.5 90 16.97 19.8 11 15 1010.9 0 37.0 37.7 70.9 187.4 203.2 705.0
07 04:20 22 95 18.44 21.2 13 15 1010.9 0 40.1 40.3 77.4 204.8 224.7 780.1
07 04:10 20.4 93 16.45 19.2 9 11 1010.9 0 36.0 37.2 69.4 183.6 198.1 687.3
07 04:00 19.7 93 15.79 18.5 11 15 1011 0 34.6 36.3 67.0 177.0 189.8 658.3
07 03:50 19.9 94 16.15 18.9 11 13 1010.9 0 35.4 36.9 68.5 181.0 194.8 675.7
07 03:40 20 95 16.42 19.2 13 13 1011 0 35.9 37.4 69.7 184.2 198.7 689.4
07 03:30 19.1 93 15.24 17.9 11 13 1011.1 0 33.5 35.5 64.9 171.6 182.9 634.3
07 03:20 19.3 93 15.42 18.1 9 11 1011.1 0 33.9 35.8 65.6 173.3 185.2 642.2
07 03:10 19.1 92 15.08 17.8 7 7 1011.2 0 33.1 35.2 64.2 169.6 180.5 625.9
07 03:00 18.8 92 14.82 17.5 0 6 1011.2 0 32.6 34.9 63.3 167.1 177.3 614.7
07 02:50 18.9 92 14.9 17.6 0 0 1011.3 0 32.8 35.0 63.6 167.9 178.3 618.1
07 02:40 19.1 92 15.08 17.8 2 7 1011.3 0 33.1 35.2 64.2 169.6 180.5 626.0
07 02:30 19 91 14.83 17.5 0 7 1011.3 0 32.6 34.8 63.2 166.8 177.0 613.6
07 02:20 19.1 91 14.92 17.6 0 0 1011.4 0 32.8 34.9 63.5 167.7 178.1 617.6
07 02:10 19.1 91 14.92 17.6 6 7 1011.5 0 32.8 34.9 63.5 167.7 178.2 617.6
07 02:00 19.3 91 15.09 17.8 2 6 1011.5 0 33.1 35.2 64.1 169.3 180.2 624.9
07 01:50 19.3 90 14.93 17.6 4 6 1011.6 0 32.8 34.9 63.4 167.4 177.8 616.6
07 01:40 19.6 91 15.36 18.1 4 6 1011.6 0 33.7 35.6 65.1 172.0 183.6 636.7
07 01:30 19.5 90 15.1 17.8 4 7 1011.7 0 33.2 35.1 64.0 169.0 179.9 623.9
07 01:20 19.6 89 15.02 17.7 2 4 1011.8 0 33.0 34.9 63.6 167.9 178.5 618.9
07 01:10 19.8 89 15.2 17.9 6 6 1011.8 0 33.3 35.2 64.2 169.6 180.7 626.7
07 01:00 20.1 89 15.47 18.2 6 7 1011.9 0 33.9 35.6 65.2 172.3 184.1 638.4
07 00:50 20.2 88 15.39 18.1 4 6 1011.9 0 33.7 35.4 64.8 171.0 182.6 633.4
07 00:40 20.4 88 15.57 18.3 6 7 1011.9 0 34.1 35.6 65.4 172.8 184.8 641.1
07 00:30 20.8 87 15.75 18.6 6 9 1012 0 34.4 35.8 65.9 174.1 186.6 647.2
07 00:20 20.8 86 15.57 18.4 7 9 1011.9 0 34.0 35.5 65.1 171.9 183.9 637.7
07 00:10 21.4 85 15.93 18.8 7 9 1011.9 0 34.8 35.9 66.2 174.9 187.8 651.4
07 00:00 21.6 84 15.93 18.8 7 11 1011.9 0 34.7 35.8 66.0 174.5 187.3 649.7
06 23:50 22.2 84 16.49 19.4 7 9 1012 0 35.9 36.6 68.1 179.9 194.1 673.8
06 23:40 22.6 85 17.07 19.9 9 11 1012 0 37.1 37.5 70.4 186.1 201.9 700.7
06 23:30 22.5 82 16.38 19.3 7 9 1012.1 0 35.6 36.2 67.3 177.9 191.7 665.4
06 23:20 22.9 81 16.55 19.5 7 7 1012.2 0 36.0 36.4 67.7 179.0 193.3 670.8
06 23:10 23.2 80 16.63 19.6 7 9 1012.3 0 36.1 36.4 67.8 179.3 193.7 672.4
06 23:00 23.6 79 16.8 19.7 7 13 1012.3 0 36.4 36.5 68.3 180.4 195.2 677.6
06 22:50 24 78 16.97 19.9 7 7 1012.3 0 36.7 36.7 68.7 181.5 196.7 682.9
06 22:40 24 78 16.97 19.9 9 11 1012.3 0 36.7 36.7 68.7 181.5 196.7 682.9
06 22:30 24.6 77 17.33 20.3 7 13 1012.3 0 37.5 37.1 69.8 184.5 200.5 696.0
06 22:20 24.7 76 17.2 20.2 9 13 1012.2 0 37.2 36.8 69.1 182.6 198.2 688.4
06 22:10 24.9 75 17.17 20.2 9 11 1012.1 0 37.1 36.6 68.8 181.8 197.3 685.0
06 22:00 24.9 74 16.94 19.9 11 17 1012.1 0 36.6 36.2 67.7 179.0 193.9 673.2
06 21:50 25.2 75 17.46 20.5 15 17 1012 0 37.7 37.0 69.8 184.5 200.7 697.1
06 21:40 25.1 75 17.36 20.4 15 20 1011.9 0 37.5 36.9 69.4 183.6 199.5 692.8
06 21:30 25.1 75 17.36 20.4 11 19 1011.9 0 37.5 36.9 69.4 183.6 199.5 692.8
06 21:20 25.2 75 17.46 20.5 11 15 1011.8 0 37.7 37.0 69.8 184.5 200.7 697.0
06 21:10 25.3 76 17.79 20.8 13 17 1011.7 0 38.4 37.6 71.2 188.2 205.3 713.1
06 21:00 25.3 75 17.56 20.5 13 22 1011.6 0 37.9 37.2 70.1 185.4 201.9 701.2
06 20:50 25.5 76 17.99 21 13 17 1011.4 0 38.8 37.8 71.9 190.1 207.7 721.5
06 20:40 25.3 74 17.32 20.3 11 13 1011.3 0 37.4 36.7 69.0 182.5 198.3 688.7
06 20:30 25.4 74 17.42 20.4 13 17 1011.2 0 37.6 36.8 69.4 183.4 199.5 692.9
06 20:20 25.4 74 17.42 20.4 13 17 1011 0 37.6 36.8 69.4 183.4 199.5 692.8
06 20:10 25.4 75 17.66 20.6 11 17 1010.9 0 38.1 37.3 70.4 186.3 203.0 705.1
06 20:00 25.4 74 17.42 20.4 11 19 1010.8 0 37.6 36.8 69.4 183.4 199.4 692.7
06 19:50 25.5 72 17.05 20.1 9 13 1010.7 0 36.8 36.1 67.6 178.7 193.8 672.9
06 19:40 25.6 73 17.38 20.4 17 20 1010.7 0 37.5 36.7 69.0 182.4 198.3 688.8
06 19:30 25.7 72 17.24 20.3 15 24 1010.6 0 37.2 36.4 68.3 180.5 196.0 680.7
06 19:20 25.8 73 17.57 20.6 17 20 1010.5 0 37.9 36.9 69.6 184.2 200.6 696.6
06 19:10 25.8 72 17.33 20.4 11 17 1010.4 0 37.4 36.5 68.6 181.3 197.0 684.3
06 19:00 25.9 71 17.19 20.2 15 24 1010.4 0 37.0 36.2 67.9 179.4 194.7 676.3
06 18:50 26 71 17.29 20.3 11 13 1010.4 0 37.3 36.3 68.2 180.4 195.9 680.5
06 18:40 26.3 70 17.33 20.4 13 19 1010.3 0 37.3 36.3 68.1 180.1 195.7 679.8
06 18:30 26.6 69 17.37 20.4 17 24 1010.2 0 37.4 36.2 68.0 179.9 195.5 679.1
06 18:20 26.9 69 17.66 20.7 17 20 1010.1 0 37.9 36.6 69.0 182.6 198.9 691.0
06 18:10 27.2 69 17.96 21 19 24 1010.1 0 38.6 37.0 70.1 185.4 202.5 703.4
06 18:00 27.5 66 17.46 20.6 17 26 1010.1 0 37.5 36.0 67.6 178.8 194.5 675.6
06 17:50 27.6 67 17.83 20.9 15 20 1010.2 0 38.2 36.6 69.2 182.9 199.5 693.3
06 17:40 27.8 65 17.48 20.6 20 24 1010.2 0 37.5 35.9 67.4 178.4 194.0 674.0
06 17:30 28 65 17.68 20.8 19 26 1010.3 0 37.9 36.2 68.1 180.2 196.4 682.2
06 17:20 28.3 63 17.42 20.8 20 24 1010.3 0 37.3 35.6 66.8 176.5 191.9 666.8
06 17:10 28.5 63 17.61 20.8 20 26 1010.4 0 37.7 35.8 67.4 178.3 194.1 674.4
06 17:00 28.6 65 18.27 21.4 19 26 1010.3 0 39.1 36.9 70.2 185.7 203.2 706.2
06 16:50 28.3 63 17.42 20.8 20 26 1010.3 0 37.3 35.6 66.8 176.5 191.9 666.8
06 16:40 28.8 62 17.62 21 17 22 1010.2 0 37.7 35.7 67.2 177.7 193.4 672.2
06 16:30 28.8 62 17.62 20.8 19 24 1010.1 0 37.7 35.7 67.2 177.7 193.4 672.2
06 16:20 28.7 60 16.96 20.4 19 24 1010 0 36.3 34.6 64.4 170.4 184.4 640.8
06 16:10 29 61 17.52 20.7 20 28 1009.9 0 37.5 35.4 66.6 176.0 191.5 665.4
06 16:00 29 62 17.81 21.2 20 28 1009.8 0 38.1 35.9 67.8 179.3 195.6 679.6
06 15:50 29.1 62 17.91 21.3 22 26 1009.8 0 38.3 36.1 68.1 180.3 196.7 683.6
06 15:40 28.9 61 17.43 20.6 22 28 1009.8 0 37.3 35.3 66.3 175.2 190.5 661.9
06 15:30 29.4 61 17.91 21.1 20 28 1009.9 0 38.2 35.9 67.9 179.6 195.9 681.0
06 15:20 29.5 61 18.01 21.4 19 26 1010 0 38.4 36.1 68.2 180.5 197.1 685.1
06 15:10 29.4 60 17.62 20.8 17 22 1010.1 0 37.6 35.5 66.7 176.3 191.9 667.0
06 15:00 29.2 63 18.3 21.4 17 28 1010.2 0 39.1 36.7 69.8 184.6 202.0 702.2
06 14:50 28.5 60 16.77 20.2 19 24 1010.4 0 35.9 34.4 63.8 168.7 182.3 633.5

Last Refresh: 07-Aug-2020 07:46:41

Most of the information presented on this site is sourced from the Bureau of Meteorology.  Copyright in all material sourced from the Bureau of Meteorology resides with the Commonwealth of Australia.